White Plains, Kentucky
Current Conditions -  °F | °C
As of 9:15 PM on Saturday 22 Nov 2014 (Local Time) from K2I0 Reporting Station
Overcast Overcast  
Wind Chill: 56°   Ceiling: 12000
Heat Index: 56°   Visibility: 10mi
Dew Point: 36°   Wind: 6mph
Humidity: 46%   Direction: 180°S
Pressure: 30.04"   Gusts: NA
Location:  37.18°N, 87.38°W
Report Text: K2I0 230315Z AUTO 18005KT 10SM SCT049 OVC120 14/02 A3004 RMK AO2 T01350022
Loading
Personal Weather Stations






























Interactive Weather Map New forecast layout! Learn more

10-Day Weather Forecast

Advertisements
Track Severe Weather on mobile